Time;durP1;ratioP1;P1;durP2;ratioP2;P2;SDS_P1;SDS_P2;PMS_P1;PMS_P2;Temp;Humidity;BMP_temperature;BMP_pressure;BME280_temperature;BME280_humidity;BME280_pressure;Samples;Min_cycle;Max_cycle;Signal;HPM_P1;HPM_P2
2024/03/13 00:00:00;;;;;;;;;1.00;1.00;;;;;22.11;43.76;101513.66;4938957;28;45345;-79
2024/03/13 00:02:28;;;;;;;;;2.00;0.33;;;;;22.11;43.69;101517.16;4938691;28;45347;-75
2024/03/13 00:04:55;;;;;;;;;0.33;0.33;;;;;22.10;43.55;101523.44;4938656;28;47272;-78
2024/03/13 00:07:20;;;;;;;;;1.00;1.00;;;;;22.10;43.21;101520.78;4938914;28;45432;-77
2024/03/13 00:09:46;;;;;;;;;1.00;1.00;;;;;22.10;43.66;101518.13;4938781;28;45345;-79
2024/03/13 00:12:15;;;;;;;;;1.00;1.00;;;;;22.06;43.12;101522.13;4938894;28;45568;-77
2024/03/13 00:14:42;;;;;;;;;1.00;1.00;;;;;22.10;43.09;101527.91;4938774;28;45334;-79
2024/03/13 00:17:08;;;;;;;;;0.00;0.00;;;;;22.07;43.31;101521.94;4938421;28;45340;-79
2024/03/13 00:19:34;;;;;;;;;1.33;1.33;;;;;21.99;43.56;101508.69;4938679;28;45496;-79
2024/03/13 00:22:02;;;;;;;;;2.00;0.00;;;;;22.07;43.10;101529.06;4938724;28;45224;-78
2024/03/13 00:24:28;;;;;;;;;1.00;1.00;;;;;22.01;43.42;101519.13;4938461;28;45445;-79
2024/03/13 00:26:56;;;;;;;;;2.00;2.00;;;;;22.06;43.73;101522.13;4938481;28;45396;-78
2024/03/13 00:29:22;;;;;;;;;3.00;1.00;;;;;22.00;43.62;101526.25;4938560;28;45346;-78
2024/03/13 00:31:47;;;;;;;;;0.00;0.00;;;;;22.06;43.66;101528.25;4937105;28;45311;-79
2024/03/13 00:34:13;;;;;;;;;3.00;1.67;;;;;22.05;43.16;101531.88;4938614;28;45443;-78
2024/03/13 00:36:38;;;;;;;;;1.67;1.67;;;;;22.06;43.23;101530.06;4938516;28;45439;-79
2024/03/13 00:39:03;;;;;;;;;1.00;1.00;;;;;22.05;43.54;101531.88;4938545;28;45251;-80
2024/03/13 00:41:29;;;;;;;;;1.67;0.33;;;;;21.95;43.12;101516.16;4938442;28;45456;-79
2024/03/13 00:43:54;;;;;;;;;1.00;1.00;;;;;21.95;43.61;101513.50;4938308;28;46221;-79
2024/03/13 00:46:23;;;;;;;;;4.33;1.00;;;;;22.05;43.16;101531.06;4938112;28;45387;-79
2024/03/13 00:48:48;;;;;;;;;1.00;0.00;;;;;21.93;43.35;101512.00;4938473;28;45402;-78
2024/03/13 00:51:14;;;;;;;;;1.00;1.00;;;;;22.06;43.11;101525.59;4938016;28;45304;-79
2024/03/13 00:53:39;;;;;;;;;1.00;1.00;;;;;22.02;43.56;101529.56;4938407;28;45395;-76
2024/03/13 00:56:05;;;;;;;;;1.00;1.00;;;;;22.04;43.35;101527.56;4953051;28;45328;-77
2024/03/13 00:58:30;;;;;;;;;1.67;1.67;;;;;21.64;43.49;101466.38;4953102;28;45327;-78
2024/03/13 01:00:55;;;;;;;;;0.33;0.00;;;;;22.02;43.72;101526.06;4937792;28;45283;-78
2024/03/13 01:03:22;;;;;;;;;0.67;0.67;;;;;22.02;43.10;101528.72;4937903;28;47531;-79
2024/03/13 01:05:48;;;;;;;;;1.00;1.00;;;;;22.03;43.31;101533.03;4937972;28;45282;-77
2024/03/13 01:08:14;;;;;;;;;2.00;1.00;;;;;22.03;43.08;101541.81;4938157;28;45264;-77
2024/03/13 01:10:40;;;;;;;;;1.67;1.00;;;;;21.99;43.71;101531.72;4937839;28;45321;-78
2024/03/13 01:13:05;;;;;;;;;1.33;1.00;;;;;22.02;43.57;101534.84;4937906;28;45990;-77
2024/03/13 01:15:31;;;;;;;;;1.00;1.00;;;;;22.01;43.64;101527.91;4937560;28;45220;-78
2024/03/13 01:17:57;;;;;;;;;3.00;1.67;;;;;21.96;43.46;101524.94;4938047;28;45231;-78
2024/03/13 01:20:23;;;;;;;;;1.33;1.00;;;;;22.00;43.59;101536.84;4938003;28;45446;-78
2024/03/13 01:22:49;;;;;;;;;0.00;0.00;;;;;21.96;43.08;101524.94;4937541;28;46335;-78
2024/03/13 01:25:15;;;;;;;;;1.00;1.00;;;;;21.90;43.00;101510.50;4937561;28;45350;-78
2024/03/13 01:27:42;;;;;;;;;1.00;1.00;;;;;21.89;43.18;101510.66;4937596;28;46043;-78
2024/03/13 01:30:13;;;;;;;;;1.00;0.67;;;;;22.01;43.34;101530.56;4937708;28;45415;-78
2024/03/13 01:32:39;;;;;;;;;2.00;1.00;;;;;21.95;43.31;101529.38;4937482;28;46696;-77
2024/03/13 01:35:06;;;;;;;;;2.00;0.00;;;;;22.01;43.13;101535.88;4937586;28;45303;-77
2024/03/13 01:40:23;;;;;;;;;0.33;0.33;;;;;21.96;43.27;101522.28;4937308;28;45303;-78
2024/03/13 01:57:00;;;;;;;;;1.00;1.00;;;;;21.92;43.13;101510.34;4937078;28;45319;-77
2024/03/13 01:59:35;;;;;;;;;3.00;1.00;;;;;21.88;43.47;101501.06;4937393;28;45477;-77
2024/03/13 02:04:48;;;;;;;;;3.00;1.33;;;;;21.98;42.96;101515.00;4937157;28;45284;-79
2024/03/13 02:07:14;;;;;;;;;1.00;1.00;;;;;21.98;43.29;101522.09;4937881;28;45471;-77
2024/03/13 02:09:40;;;;;;;;;1.67;1.00;;;;;21.98;43.11;101517.63;4937841;28;45390;-78
2024/03/13 02:12:10;;;;;;;;;1.00;1.00;;;;;22.00;43.18;101517.47;4937947;28;45464;-78
2024/03/13 02:14:35;;;;;;;;;1.00;1.00;;;;;21.99;43.57;101511.31;4937446;28;47136;-79
2024/03/13 02:17:00;;;;;;;;;1.00;1.00;;;;;21.96;43.50;101503.72;4937304;28;45414;-79
2024/03/13 02:19:29;;;;;;;;;0.00;0.00;;;;;21.98;43.26;101504.38;4937381;28;45451;-79
2024/03/13 02:22:00;;;;;;;;;0.67;0.67;;;;;21.93;43.32;101498.75;4937149;28;45465;-77
2024/03/13 02:24:25;;;;;;;;;1.33;1.33;;;;;22.00;43.09;101510.34;4936764;28;46097;-78
2024/03/13 02:26:52;;;;;;;;;0.67;0.33;;;;;21.95;43.15;101502.91;4936599;28;45171;-78
2024/03/13 02:29:18;;;;;;;;;0.00;0.00;;;;;22.00;42.88;101506.88;4937193;28;45401;-78
2024/03/13 02:31:43;;;;;;;;;0.33;0.33;;;;;22.00;43.04;101510.34;4936982;28;45523;-79
2024/03/13 02:34:09;;;;;;;;;1.00;1.00;;;;;22.00;43.21;101506.88;4937159;28;46024;-78
2024/03/13 02:36:35;;;;;;;;;2.00;1.00;;;;;21.95;42.90;101499.41;4936918;28;45409;-78
2024/03/13 02:39:01;;;;;;;;;0.00;0.00;;;;;21.96;43.43;101487.84;4936981;28;45370;-78
2024/03/13 02:41:27;;;;;;;;;1.00;1.00;;;;;21.99;42.93;101508.69;4936560;28;45627;-78
2024/03/13 02:43:54;;;;;;;;;5.00;1.00;;;;;21.98;43.35;101493.78;4936629;28;45499;-79
2024/03/13 02:46:19;;;;;;;;;1.00;1.00;;;;;21.91;43.55;101492.78;4936823;28;45364;-78
2024/03/13 02:48:44;;;;;;;;;1.00;1.00;;;;;21.98;43.01;101499.09;4936712;28;45414;-77
2024/03/13 02:51:11;;;;;;;;;0.00;0.00;;;;;21.97;42.92;101497.41;4936833;28;45407;-78
2024/03/13 02:53:38;;;;;;;;;1.00;1.00;;;;;21.92;42.78;101489.13;4937367;28;47132;-79
2024/03/13 02:56:06;;;;;;;;;1.00;1.00;;;;;21.98;42.90;101500.91;4939535;28;45387;-77
2024/03/13 02:58:32;;;;;;;;;0.33;0.33;;;;;21.95;42.95;101496.75;4940052;28;45236;-79
2024/03/13 03:00:58;;;;;;;;;1.00;1.00;;;;;21.95;43.02;101488.81;4939841;28;45422;-78
2024/03/13 03:03:24;;;;;;;;;0.33;0.33;;;;;21.96;43.39;101490.47;4939808;28;45598;-78
2024/03/13 03:05:49;;;;;;;;;2.00;0.67;;;;;21.87;43.36;101470.22;4939705;28;45371;-79
2024/03/13 03:08:15;;;;;;;;;1.00;1.00;;;;;21.94;42.99;101476.53;4939979;28;45315;-78
2024/03/13 03:10:40;;;;;;;;;0.67;0.67;;;;;21.95;43.20;101489.66;4939427;28;45327;-79
2024/03/13 03:13:08;;;;;;;;;1.00;0.00;;;;;21.87;42.88;101473.75;4939674;28;45305;-79
2024/03/13 03:15:34;;;;;;;;;0.33;0.33;;;;;21.95;43.38;101484.34;4939793;28;45417;-78
2024/03/13 03:18:00;;;;;;;;;2.00;2.00;;;;;21.95;42.97;101487.00;4939712;28;45487;-78
2024/03/13 03:20:26;;;;;;;;;1.00;1.00;;;;;21.95;43.22;101483.50;4939503;28;45546;-76
2024/03/13 03:22:53;;;;;;;;;2.00;0.00;;;;;21.62;43.45;101436.59;4939510;28;46120;-78
2024/03/13 03:25:18;;;;;;;;;0.67;0.67;;;;;21.90;42.82;101473.41;4939024;28;45473;-76
2024/03/13 03:27:44;;;;;;;;;2.00;2.00;;;;;21.97;42.98;101481.53;4939538;28;45362;-78
2024/03/13 03:30:11;;;;;;;;;0.67;0.67;;;;;21.91;42.99;101472.41;4939431;28;45437;-78
2024/03/13 03:32:37;;;;;;;;;0.33;0.33;;;;;21.94;42.88;101485.34;4939377;28;47229;-78
2024/03/13 03:35:04;;;;;;;;;0.00;0.00;;;;;21.98;43.55;101493.78;4939301;28;45411;-79
2024/03/13 03:37:30;;;;;;;;;0.00;0.00;;;;;21.96;43.20;101490.47;4939504;28;45332;-78
2024/03/13 03:39:55;;;;;;;;;1.00;0.00;;;;;21.99;42.94;101491.97;4938832;28;45291;-77
2024/03/13 03:42:22;;;;;;;;;0.33;0.33;;;;;21.96;42.80;101487.84;4939280;28;47077;-78
2024/03/13 03:44:47;;;;;;;;;0.00;0.00;;;;;21.92;43.32;101495.28;4939361;28;45308;-77
2024/03/13 03:47:12;;;;;;;;;1.00;1.00;;;;;21.92;42.92;101487.31;4939305;28;45236;-75
2024/03/13 03:49:39;;;;;;;;;2.00;0.67;;;;;21.99;42.85;101499.94;4939331;28;45351;-78
2024/03/13 03:52:05;;;;;;;;;0.00;0.00;;;;;21.91;42.89;101482.19;4938921;28;45268;-78
2024/03/13 03:54:31;;;;;;;;;1.00;1.00;;;;;21.98;42.92;101491.13;4953436;28;45293;-77
2024/03/13 03:56:56;;;;;;;;;0.00;0.00;;;;;21.98;42.96;101492.97;4939353;28;45330;-77
2024/03/13 03:59:23;;;;;;;;;1.00;1.00;;;;;21.89;43.19;101489.47;4938996;28;45288;-77
2024/03/13 04:01:49;;;;;;;;;1.67;0.67;;;;;21.93;43.27;101482.84;4938952;28;46216;-78
2024/03/13 04:04:15;;;;;;;;;1.00;1.00;;;;;21.97;43.37;101502.72;4938609;28;45442;-78
2024/03/13 04:06:45;;;;;;;;;1.00;1.00;;;;;21.96;42.74;101496.59;4939006;28;45362;-78
2024/03/13 04:09:16;;;;;;;;;0.00;0.00;;;;;21.96;42.72;101498.44;4938705;28;45402;-78
2024/03/13 04:11:43;;;;;;;;;1.00;1.00;;;;;21.94;43.28;101492.44;4938679;28;47302;-78
2024/03/13 04:14:11;;;;;;;;;0.00;0.00;;;;;21.96;43.19;101498.44;4938761;28;45283;-78
2024/03/13 04:16:38;;;;;;;;;0.33;0.33;;;;;21.78;43.10;101470.22;4938871;28;45263;-77
2024/03/13 04:19:03;;;;;;;;;0.67;0.67;;;;;21.91;42.94;101493.59;4938276;28;45378;-77
2024/03/13 04:21:28;;;;;;;;;1.67;0.67;;;;;21.96;43.23;101498.44;4937135;28;46008;-78
2024/03/13 04:23:54;;;;;;;;;1.00;1.00;;;;;21.97;43.32;101497.41;4938277;28;45418;-77
2024/03/13 04:26:20;;;;;;;;;0.33;0.33;;;;;21.87;43.40;101484.34;4922314;28;45376;-77
2024/03/13 04:28:45;;;;;;;;;0.00;0.00;;;;;21.96;42.79;101499.25;4919444;28;45358;-75
2024/03/13 04:31:13;;;;;;;;;0.00;0.00;;;;;21.97;42.84;101497.41;4919278;28;45439;-78
2024/03/13 04:33:40;;;;;;;;;1.00;1.00;;;;;21.95;42.87;101507.34;4919339;28;45402;-75
2024/03/13 04:36:06;;;;;;;;;1.00;1.00;;;;;21.96;43.19;101501.88;4919424;28;45487;-77
2024/03/13 04:38:31;;;;;;;;;0.33;0.33;;;;;21.87;42.89;101486.97;4918875;28;45299;-78
2024/03/13 04:40:56;;;;;;;;;1.00;1.00;;;;;21.91;43.25;101495.44;4918901;28;46272;-77
2024/03/13 04:43:22;;;;;;;;;0.67;0.67;;;;;21.96;42.76;101512.47;4919226;28;45253;-78
2024/03/13 04:45:47;;;;;;;;;2.00;1.33;;;;;21.97;42.91;101513.31;4937085;28;45299;-77
2024/03/13 04:48:13;;;;;;;;;0.00;0.00;;;;;21.96;43.23;101511.69;4938531;28;45486;-77
2024/03/13 04:50:38;;;;;;;;;0.00;0.00;;;;;21.84;43.30;101496.06;4938440;28;46318;-76
2024/03/13 04:53:04;;;;;;;;;0.00;0.00;;;;;21.97;42.73;101510.66;4938745;28;45376;-75
2024/03/13 04:55:29;;;;;;;;;0.00;0.00;;;;;21.98;43.23;101515.00;4939404;28;45346;-78
2024/03/13 04:57:55;;;;;;;;;0.00;0.00;;;;;21.94;43.08;101511.00;4938617;28;45318;-76
2024/03/13 05:00:21;;;;;;;;;0.00;0.00;;;;;21.98;42.74;101515.00;4953278;28;48141;-76
2024/03/13 05:02:46;;;;;;;;;0.00;0.00;;;;;21.89;42.77;101505.34;4938093;28;45384;-75
2024/03/13 05:05:15;;;;;;;;;1.00;1.00;;;;;21.93;43.06;101514.66;4937979;28;45291;-77
2024/03/13 05:07:44;;;;;;;;;0.00;0.00;;;;;21.98;43.12;101517.63;4938277;28;45366;-77
2024/03/13 05:10:10;;;;;;;;;0.33;0.33;;;;;21.94;43.39;101511.81;4937895;28;47352;-78
2024/03/13 05:12:39;;;;;;;;;1.00;1.00;;;;;22.00;43.24;101517.47;4937963;28;45359;-77
2024/03/13 05:15:05;;;;;;;;;0.00;0.00;;;;;22.00;43.23;101520.13;4938155;28;45335;-77
2024/03/13 05:17:31;;;;;;;;;0.67;0.67;;;;;21.93;43.15;101501.41;4937501;28;45570;-78
2024/03/13 05:19:59;;;;;;;;;2.00;1.00;;;;;22.00;42.68;101510.34;4937417;28;45310;-77
2024/03/13 05:22:29;;;;;;;;;0.67;0.00;;;;;21.94;42.85;101498.56;4937904;28;45434;-77
2024/03/13 05:24:55;;;;;;;;;0.00;0.00;;;;;22.00;43.11;101507.69;4937732;28;45465;-77
2024/03/13 05:27:20;;;;;;;;;1.00;1.00;;;;;22.02;42.79;101510.19;4937845;28;45303;-77
2024/03/13 05:29:46;;;;;;;;;1.00;1.00;;;;;21.95;42.66;101500.25;4937599;28;46386;-76
2024/03/13 05:32:11;;;;;;;;;0.67;0.67;;;;;22.01;42.95;101516.47;4937755;28;45332;-77
2024/03/13 05:34:37;;;;;;;;;0.00;0.00;;;;;21.90;43.09;101501.72;4937573;28;45356;-77
2024/03/13 05:37:03;;;;;;;;;1.00;1.00;;;;;22.00;43.29;101517.47;4937892;28;45429;-78
2024/03/13 05:39:29;;;;;;;;;0.00;0.00;;;;;21.99;43.09;101516.63;4937238;28;46182;-75
2024/03/13 05:41:54;;;;;;;;;1.33;0.00;;;;;21.95;43.34;101507.34;4937617;28;45432;-76
2024/03/13 05:44:19;;;;;;;;;1.00;0.00;;;;;21.98;43.22;101516.81;4937591;28;45410;-77
2024/03/13 05:46:45;;;;;;;;;0.00;0.00;;;;;21.98;43.24;101516.81;4937628;28;45579;-77
2024/03/13 05:49:16;;;;;;;;;0.67;0.67;;;;;21.89;42.85;101510.66;4936982;28;47138;-77
2024/03/13 05:51:42;;;;;;;;;0.00;0.00;;;;;21.87;42.85;101513.47;4937364;28;45510;-77
2024/03/13 05:54:08;;;;;;;;;2.00;0.00;;;;;21.93;43.12;101523.44;4937657;28;45414;-77
2024/03/13 05:56:33;;;;;;;;;1.00;1.00;;;;;21.87;43.14;101512.59;4937423;28;45493;-78
2024/03/13 05:58:58;;;;;;;;;1.00;1.00;;;;;21.95;42.75;101533.84;4937354;28;45966;-77
2024/03/13 06:01:26;;;;;;;;;0.00;0.00;;;;;21.90;43.09;101525.56;4937326;28;45274;-77
2024/03/13 06:03:53;;;;;;;;;0.00;0.00;;;;;21.82;43.23;101516.59;4937051;28;45365;-77
2024/03/13 06:06:21;;;;;;;;;1.33;0.33;;;;;21.93;42.78;101535.84;4936000;28;45513;-77
2024/03/13 06:08:47;;;;;;;;;1.00;1.00;;;;;21.93;42.68;101531.38;4937166;28;45194;-78
2024/03/13 06:11:12;;;;;;;;;1.00;1.00;;;;;21.90;43.17;101530.88;4936982;28;45383;-78
2024/03/13 06:13:38;;;;;;;;;0.00;0.00;;;;;21.84;42.69;101508.47;4937283;28;45406;-77
2024/03/13 06:16:06;;;;;;;;;2.33;1.00;;;;;21.95;43.03;101531.22;4937138;28;45402;-78
2024/03/13 06:18:31;;;;;;;;;1.00;1.00;;;;;21.95;43.21;101532.03;4936641;28;46380;-78
2024/03/13 06:20:57;;;;;;;;;1.00;1.00;;;;;21.96;42.56;101531.03;4936966;28;45352;-79
2024/03/13 06:23:26;;;;;;;;;1.00;1.00;;;;;21.91;43.08;101514.78;4937286;28;45556;-76
2024/03/13 06:25:52;;;;;;;;;0.00;0.00;;;;;21.92;43.13;101526.22;4936805;28;45383;-77
2024/03/13 06:31:02;;;;;;;;;1.00;1.00;;;;;21.89;42.76;101522.09;4940481;28;45583;-77
2024/03/13 06:33:27;;;;;;;;;1.00;1.00;;;;;21.82;42.61;101516.59;4939985;28;45359;-75
2024/03/13 06:35:53;;;;;;;;;1.33;1.00;;;;;21.96;42.79;101538.97;4940307;28;45338;-76
2024/03/13 06:38:18;;;;;;;;;2.00;0.00;;;;;21.67;42.75;101491.72;4940334;28;45350;-75
2024/03/13 06:40:43;;;;;;;;;0.33;0.33;;;;;21.99;43.40;101540.47;4939625;28;45378;-76
2024/03/13 06:43:09;;;;;;;;;0.00;0.00;;;;;22.00;43.00;101542.16;4940383;28;45443;-77
2024/03/13 06:45:36;;;;;;;;;1.67;0.00;;;;;22.00;42.87;101542.16;4940002;28;45322;-76
2024/03/13 06:48:01;;;;;;;;;0.00;0.00;;;;;22.03;43.26;101543.63;4939716;28;47201;-75
2024/03/13 06:50:26;;;;;;;;;2.00;1.00;;;;;22.03;43.17;101538.34;4939855;28;45383;-77
2024/03/13 06:52:52;;;;;;;;;0.67;0.67;;;;;22.04;43.83;101540.81;4940069;28;45855;-75
2024/03/13 06:55:17;;;;;;;;;2.00;1.00;;;;;22.05;43.81;101542.47;4939819;28;46871;-75
2024/03/13 06:57:42;;;;;;;;;0.00;0.00;;;;;22.06;43.76;101538.03;4938489;28;46819;-75
2024/03/13 07:00:08;;;;;;;;;1.00;1.00;;;;;22.06;43.70;101538.03;4926632;28;45548;-76
2024/03/13 07:02:33;;;;;;;;;1.00;1.00;;;;;22.04;43.77;101535.50;4935568;28;45895;-74
2024/03/13 07:04:59;;;;;;;;;1.00;0.00;;;;;21.96;43.72;101528.38;4935547;28;45758;-75
2024/03/13 07:07:24;;;;;;;;;1.00;1.00;;;;;22.04;43.22;101535.50;4935641;28;46013;-75
2024/03/13 07:09:49;;;;;;;;;0.00;0.00;;;;;22.00;43.08;101528.91;4935170;28;45377;-75
2024/03/13 07:12:15;;;;;;;;;0.00;0.00;;;;;21.96;43.32;101536.34;4935046;28;45426;-74
2024/03/13 07:14:41;;;;;;;;;1.00;1.00;;;;;21.99;43.95;101532.53;4935799;28;46465;-73
2024/03/13 07:17:07;;;;;;;;;3.33;1.00;;;;;21.95;43.57;101526.75;4934805;28;46321;-74
2024/03/13 07:19:35;;;;;;;;;0.67;0.67;;;;;22.05;43.70;101552.25;4935674;28;45397;-74
2024/03/13 07:22:01;;;;;;;;;1.00;0.00;;;;;22.04;43.41;101554.06;4935455;28;45502;-74
2024/03/13 07:24:26;;;;;;;;;1.00;1.00;;;;;22.04;43.47;101555.91;4936061;28;45588;-74
2024/03/13 07:26:51;;;;;;;;;0.00;0.00;;;;;21.98;43.38;101541.47;4935762;28;45394;-74
2024/03/13 07:29:17;;;;;;;;;1.00;1.00;;;;;22.04;43.29;101555.91;4934905;28;45914;-73
2024/03/13 07:31:43;;;;;;;;;0.00;0.00;;;;;22.04;43.31;101555.91;4934217;28;45369;-74
2024/03/13 07:34:09;;;;;;;;;0.33;0.33;;;;;22.03;43.29;101555.06;4935485;28;45716;-73
2024/03/13 07:36:37;;;;;;;;;0.00;0.00;;;;;22.02;43.53;101544.63;4935164;28;47061;-74
2024/03/13 07:39:04;;;;;;;;;1.00;1.00;;;;;22.03;43.20;101559.53;4934812;28;45353;-73
2024/03/13 07:41:31;;;;;;;;;0.00;0.00;;;;;22.02;43.22;101558.69;4935184;28;45401;-75
2024/03/13 07:43:56;;;;;;;;;1.00;1.00;;;;;22.03;43.62;101560.38;4935557;28;46487;-74
2024/03/13 07:46:22;;;;;;;;;0.33;0.33;;;;;22.00;43.18;101560.69;4935154;28;45602;-74
2024/03/13 07:48:47;;;;;;;;;2.00;1.00;;;;;22.01;43.15;101561.53;4935229;28;45449;-74
2024/03/13 07:51:13;;;;;;;;;1.00;1.00;;;;;22.00;43.22;101566.00;4935571;28;46582;-75
2024/03/13 07:53:38;;;;;;;;;1.00;1.00;;;;;21.96;43.52;101565.47;4935246;28;45465;-74
2024/03/13 07:56:05;;;;;;;;;1.67;0.67;;;;;22.00;43.15;101567.81;4935221;28;45770;-74
2024/03/13 07:58:31;;;;;;;;;0.00;0.00;;;;;21.99;43.59;101569.63;4935422;28;45433;-74
2024/03/13 08:00:56;;;;;;;;;0.00;0.00;;;;;21.92;43.06;101553.56;4935503;28;45550;-74
2024/03/13 08:03:22;;;;;;;;;0.00;0.00;;;;;22.00;42.81;101568.66;4935401;28;45446;-75
2024/03/13 08:05:49;;;;;;;;;1.00;1.00;;;;;21.99;43.49;101574.91;4931196;28;46548;-75
2024/03/13 08:08:15;;;;;;;;;0.33;0.33;;;;;21.90;43.18;101555.53;4931514;28;45567;-76
2024/03/13 08:10:40;;;;;;;;;1.00;1.00;;;;;21.95;43.29;101558.53;4933881;28;45522;-77
2024/03/13 08:13:06;;;;;;;;;0.00;0.00;;;;;22.00;43.38;101565.16;4934808;28;45377;-80
2024/03/13 08:15:31;;;;;;;;;1.33;0.33;;;;;22.00;42.86;101560.69;4933954;28;46533;-80
2024/03/13 08:17:58;;;;;;;;;1.00;1.00;;;;;22.02;43.10;101571.94;4935285;28;45570;-80
2024/03/13 08:20:24;;;;;;;;;0.00;0.00;;;;;22.03;43.01;101575.44;4934750;28;45558;-79
2024/03/13 08:22:49;;;;;;;;;1.00;1.00;;;;;22.02;42.79;101577.25;4934581;28;45442;-80
2024/03/13 08:25:16;;;;;;;;;1.00;1.00;;;;;22.05;43.42;101586.69;4933496;28;45428;-79
2024/03/13 08:27:47;;;;;;;;;0.33;0.00;;;;;22.05;43.11;101584.03;4934341;28;45327;-79
2024/03/13 08:30:20;;;;;;;;;1.00;0.00;;;;;22.02;42.96;101579.06;4934253;28;46311;-79
2024/03/13 08:32:48;;;;;;;;;1.00;1.00;;;;;22.00;43.61;101578.41;4933369;28;45373;-80
2024/03/13 08:35:14;;;;;;;;;0.33;0.33;;;;;22.01;42.98;101580.91;4934132;28;46403;-80
2024/03/13 08:37:42;;;;;;;;;0.00;0.00;;;;;22.03;43.57;101588.69;4934340;28;45860;-79
2024/03/13 08:40:11;;;;;;;;;2.00;0.00;;;;;22.02;43.49;101585.19;4934429;28;45496;-79
2024/03/13 08:42:36;;;;;;;;;0.00;0.00;;;;;21.94;43.06;101571.94;4934188;28;45856;-78
2024/03/13 08:45:03;;;;;;;;;1.67;1.00;;;;;21.96;42.92;101580.56;4933731;28;46186;-79
2024/03/13 08:47:29;;;;;;;;;1.00;0.00;;;;;22.03;43.39;101597.47;4933560;28;45543;-78
2024/03/13 08:49:55;;;;;;;;;2.00;1.00;;;;;22.02;43.54;101595.81;4934180;28;45858;-77
2024/03/13 08:52:21;;;;;;;;;1.00;1.00;;;;;21.92;43.60;101576.56;4933669;28;45447;-77
2024/03/13 08:54:48;;;;;;;;;0.00;0.00;;;;;21.96;43.23;101591.16;4933745;28;46036;-77
2024/03/13 08:57:13;;;;;;;;;1.00;1.00;;;;;22.02;42.90;101592.31;4930596;28;45459;-77
2024/03/13 08:59:40;;;;;;;;;1.00;0.00;;;;;22.01;43.47;101602.09;4933972;28;45481;-77
2024/03/13 09:02:06;;;;;;;;;2.67;2.67;;;;;22.00;43.51;101600.44;4930241;28;45426;-78
2024/03/13 09:04:33;;;;;;;;;2.00;1.00;;;;;22.02;43.42;101605.56;4934003;28;45814;-78
2024/03/13 09:07:00;;;;;;;;;1.00;1.00;;;;;22.00;43.70;101607.56;4934248;28;45890;-78
2024/03/13 09:09:26;;;;;;;;;0.67;0.67;;;;;22.01;43.54;101611.88;4934209;28;45785;-78
2024/03/13 09:11:52;;;;;;;;;0.67;0.67;;;;;22.01;43.43;101606.56;4948222;28;46110;-79
2024/03/13 09:14:17;;;;;;;;;1.33;0.00;;;;;22.01;43.32;101606.56;4933826;28;46418;-78
2024/03/13 09:16:43;;;;;;;;;0.33;0.33;;;;;22.02;43.63;101611.69;4933950;28;45533;-78
2024/03/13 09:19:10;;;;;;;;;2.00;0.00;;;;;21.97;42.94;101600.75;4934057;28;45410;-77
2024/03/13 09:21:35;;;;;;;;;0.00;0.00;;;;;22.03;43.00;101608.06;4933529;28;45397;-77
2024/03/13 09:24:00;;;;;;;;;3.00;0.00;;;;;21.76;43.11;101556.13;4933392;28;46020;-77
2024/03/13 09:26:26;;;;;;;;;0.00;0.00;;;;;21.95;42.99;101585.03;4948552;28;45513;-77
2024/03/13 09:28:52;;;;;;;;;0.00;0.00;;;;;22.00;42.77;101589.84;4934083;28;45348;-76
2024/03/13 09:31:17;;;;;;;;;0.67;0.67;;;;;21.99;43.49;101587.38;4933514;28;45339;-76
2024/03/13 09:33:43;;;;;;;;;0.00;0.00;;;;;22.02;43.65;101587.84;4933057;28;47069;-75
2024/03/13 09:36:14;;;;;;;;;0.00;0.00;;;;;22.03;43.00;101586.88;4932702;28;45827;-74
2024/03/13 09:38:42;;;;;;;;;0.00;0.00;;;;;21.78;43.24;101548.88;4947827;28;45385;-76
2024/03/13 09:41:13;;;;;;;;;1.00;1.00;;;;;22.05;42.93;101584.03;4931884;28;45336;-75
2024/03/13 09:43:38;;;;;;;;;0.33;0.33;;;;;22.06;42.96;101598.97;4933424;28;47327;-77
2024/03/13 09:46:05;;;;;;;;;1.00;1.00;;;;;22.06;42.70;101591.03;4933008;28;45408;-78
2024/03/13 09:48:34;;;;;;;;;1.00;1.00;;;;;22.05;43.06;101590.19;4933382;28;45322;-77
2024/03/13 09:51:00;;;;;;;;;0.00;0.00;;;;;22.05;42.76;101590.19;4933481;28;45689;-77
2024/03/13 09:53:28;;;;;;;;;0.33;0.33;;;;;22.02;43.41;101592.31;4933911;28;46238;-77
2024/03/13 09:55:53;;;;;;;;;1.00;1.00;;;;;22.01;43.15;101583.56;4933334;28;45508;-75
2024/03/13 09:58:21;;;;;;;;;0.00;0.00;;;;;22.03;43.22;101589.53;4933084;28;45533;-78
2024/03/13 10:00:46;;;;;;;;;1.00;0.00;;;;;22.00;43.47;101583.69;4932973;28;46018;-78
2024/03/13 10:03:24;;;;;;;;;1.00;1.00;;;;;22.01;43.39;101580.06;4934094;28;46206;-79
2024/03/13 10:06:05;;;;;;;;;0.00;0.00;;;;;21.86;43.30;101562.09;4937057;28;45797;-78
2024/03/13 10:08:32;;;;;;;;;0.00;0.00;;;;;21.93;42.66;101576.41;4936370;28;45495;-76
2024/03/13 10:11:02;;;;;;;;;2.00;0.00;;;;;22.04;43.32;101590.34;4936314;28;45422;-80
2024/03/13 10:13:33;;;;;;;;;0.67;0.67;;;;;21.98;43.27;101581.22;4936314;28;45434;-77
2024/03/13 10:16:01;;;;;;;;;0.00;0.00;;;;;22.06;42.81;101588.38;4936347;28;45332;-79
2024/03/13 10:18:29;;;;;;;;;1.67;0.33;;;;;21.98;43.00;101570.63;4936833;28;45394;-78
2024/03/13 10:20:54;;;;;;;;;0.33;0.33;;;;;22.06;42.97;101586.56;4936298;28;45513;-78
2024/03/13 10:23:22;;;;;;;;;1.00;1.00;;;;;21.97;43.19;101574.25;4935635;28;45357;-78
2024/03/13 10:25:54;;;;;;;;;0.00;0.00;;;;;22.06;43.43;101588.38;4936320;28;45984;-77
2024/03/13 10:28:23;;;;;;;;;0.67;0.67;;;;;22.05;43.07;101582.22;4936012;28;45409;-78
2024/03/13 10:30:51;;;;;;;;;1.00;0.00;;;;;22.06;43.27;101588.38;4935881;28;45409;-76
2024/03/13 10:33:16;;;;;;;;;0.00;0.00;;;;;22.05;42.82;101586.69;4935661;28;46404;-78
2024/03/13 10:35:42;;;;;;;;;1.00;1.00;;;;;22.04;42.93;101590.34;4936537;28;45691;-76
2024/03/13 10:38:12;;;;;;;;;0.00;0.00;;;;;22.04;43.22;101590.34;4950519;28;45409;-78
2024/03/13 10:40:39;;;;;;;;;0.00;0.00;;;;;22.03;43.09;101580.75;4935638;28;45732;-78
2024/03/13 10:43:08;;;;;;;;;0.33;0.00;;;;;21.89;43.29;101553.88;4935679;28;46211;-78
2024/03/13 10:45:34;;;;;;;;;1.00;1.00;;;;;22.05;43.06;101576.94;4935870;28;45479;-75
2024/03/13 10:48:00;;;;;;;;;0.00;0.00;;;;;22.04;43.28;101579.75;4935063;28;45459;-78
2024/03/13 10:50:26;;;;;;;;;1.00;1.00;;;;;22.04;42.55;101580.56;4936341;28;45650;-77
2024/03/13 10:52:52;;;;;;;;;0.00;0.00;;;;;22.07;42.67;101582.91;4935930;28;45403;-79
2024/03/13 10:55:17;;;;;;;;;0.00;0.00;;;;;22.10;42.64;101584.38;4934881;28;45482;-76
2024/03/13 10:57:43;;;;;;;;;2.00;1.00;;;;;21.98;43.09;101565.34;4936169;28;45364;-78
2024/03/13 11:00:17;;;;;;;;;0.00;0.00;;;;;22.12;43.08;101585.06;4937211;28;45291;-77
2024/03/13 11:02:42;;;;;;;;;1.00;1.00;;;;;22.13;42.60;101589.38;4936507;28;46063;-77
2024/03/13 11:05:11;;;;;;;;;1.00;1.00;;;;;22.13;43.15;101589.38;4935872;28;45380;-79
2024/03/13 11:07:37;;;;;;;;;1.00;1.00;;;;;22.17;43.22;101592.53;4935734;28;45366;-78
2024/03/13 11:10:03;;;;;;;;;0.00;0.00;;;;;22.15;43.09;101582.06;4935351;28;45462;-78
2024/03/13 11:12:31;;;;;;;;;0.33;0.33;;;;;22.14;43.15;101577.78;4935950;28;45377;-79
2024/03/13 11:15:03;;;;;;;;;0.00;0.00;;;;;22.10;42.60;101572.94;4935307;28;46380;-79
2024/03/13 11:17:31;;;;;;;;;1.67;1.00;;;;;22.14;42.86;101580.44;4935721;28;45365;-77
2024/03/13 11:20:08;;;;;;;;;1.00;0.00;;;;;22.17;42.66;101580.09;4935852;28;45889;-77
2024/03/13 11:22:35;;;;;;;;;0.67;0.67;;;;;22.17;43.05;101581.94;4934646;28;48072;-78
2024/03/13 11:25:09;;;;;;;;;0.33;0.00;;;;;22.17;42.73;101584.59;4935035;28;45509;-78
2024/03/13 11:27:44;;;;;;;;;0.00;0.00;;;;;22.17;42.81;101569.50;4935509;28;45414;-78
2024/03/13 11:30:19;;;;;;;;;0.00;0.00;;;;;22.16;43.11;101565.19;4934477;28;45467;-78
2024/03/13 11:32:46;;;;;;;;;0.67;0.67;;;;;22.06;42.80;101548.63;4933794;28;46228;-80
2024/03/13 11:35:12;;;;;;;;;0.00;0.00;;;;;22.18;42.95;101563.22;4934726;28;45497;-76
2024/03/13 11:37:37;;;;;;;;;0.00;0.00;;;;;22.20;43.37;101567.53;4934932;28;45408;-80
2024/03/13 11:40:03;;;;;;;;;1.00;1.00;;;;;22.10;43.27;101543.81;4935046;28;45492;-79
2024/03/13 11:42:32;;;;;;;;;0.00;0.00;;;;;22.22;41.73;101552.28;4935293;28;46093;-79